Time;durP1;ratioP1;P1;durP2;ratioP2;P2;SDS_P1;SDS_P2;PMS_P1;PMS_P2;Temp;Humidity;BMP_temperature;BMP_pressure;BME280_temperature;BME280_humidity;BME280_pressure;Samples;Min_cycle;Max_cycle;Signal;HPM_P1;HPM_P2
2021/05/07 00:02:10;;;;;;;56.02;29.92;;;;;;;8.36;75.46;99034.89;1612281;89;21393;-75
2021/05/07 00:04:36;;;;;;;63.50;35.70;;;;;;;8.37;75.56;99037.03;1612443;89;21158;-75
2021/05/07 00:07:02;;;;;;;62.10;33.18;;;;;;;8.35;75.64;99035.01;1611992;88;21291;-75
2021/05/07 00:09:28;;;;;;;28.65;15.68;;;;;;;8.33;76.11;99037.78;1612357;88;21149;-75
2021/05/07 00:11:54;;;;;;;10.88;7.05;;;;;;;8.30;75.94;99036.72;1612160;89;21691;-75
2021/05/07 00:14:20;;;;;;;8.98;5.12;;;;;;;8.30;75.72;99034.58;1612374;89;21337;-75
2021/05/07 00:16:46;;;;;;;5.45;3.50;;;;;;;8.31;76.01;99038.38;1612269;89;21577;-75
2021/05/07 00:19:11;;;;;;;6.97;4.30;;;;;;;8.33;76.55;99040.89;1626126;87;21156;-75
2021/05/07 00:21:38;;;;;;;5.75;4.37;;;;;;;8.31;76.11;99041.48;1638443;87;21249;-75
2021/05/07 00:24:05;;;;;;;6.20;3.77;;;;;;;8.28;76.87;99038.63;1630546;87;21354;-75
2021/05/07 00:26:32;;;;;;;6.03;4.72;;;;;;;8.23;76.68;99032.94;1611029;89;21165;-75
2021/05/07 00:28:58;;;;;;;6.62;3.70;;;;;;;8.22;76.85;99037.34;1611136;89;21316;-75
2021/05/07 00:31:24;;;;;;;5.75;4.12;;;;;;;8.22;77.08;99030.77;1612244;89;21624;-75
2021/05/07 00:33:50;;;;;;;6.25;4.92;;;;;;;8.21;77.47;99023.02;1612415;89;21183;-75
2021/05/07 00:36:16;;;;;;;5.25;3.83;;;;;;;8.16;76.77;99026.05;1611928;89;21158;-75
2021/05/07 00:38:42;;;;;;;8.28;4.05;;;;;;;8.19;77.30;99023.63;1612743;89;21102;-75
2021/05/07 00:41:08;;;;;;;6.00;4.37;;;;;;;8.19;77.54;99023.17;1612951;88;21489;-75
2021/05/07 00:43:34;;;;;;;8.28;5.75;;;;;;;8.19;77.72;99022.31;1615290;88;21208;-75
2021/05/07 00:46:00;;;;;;;12.10;8.98;;;;;;;8.14;77.52;99009.56;1619552;88;21122;-75
2021/05/07 00:48:27;;;;;;;12.53;8.25;;;;;;;8.13;77.86;99011.02;1615618;88;21130;-75
2021/05/07 00:50:53;;;;;;;10.75;7.00;;;;;;;8.12;78.00;99010.65;1619688;88;21198;-75
2021/05/07 00:53:21;;;;;;;10.32;7.62;;;;;;;8.11;78.01;99011.13;1622084;87;21197;-75
2021/05/07 00:55:47;;;;;;;14.25;10.05;;;;;;;8.11;78.42;99008.50;1624112;88;21094;-75
2021/05/07 00:58:14;;;;;;;16.02;10.88;;;;;;;8.10;78.27;99008.16;1618431;87;21177;-75
2021/05/07 01:00:40;;;;;;;15.70;12.00;;;;;;;8.09;78.45;99006.96;1614805;88;21245;-75
2021/05/07 01:03:07;;;;;;;12.58;9.40;;;;;;;8.06;78.13;99002.81;1620638;88;21556;-75
2021/05/07 01:05:33;;;;;;;9.05;8.15;;;;;;;8.05;78.38;99004.24;1615277;88;21123;-75
2021/05/07 01:07:59;;;;;;;7.97;7.15;;;;;;;8.02;78.74;99000.06;1619978;88;22455;-75
2021/05/07 01:10:25;;;;;;;12.00;6.42;;;;;;;7.99;78.71;98992.44;1617086;88;21424;-75
2021/05/07 01:12:52;;;;;;;7.03;5.58;;;;;;;7.98;78.78;98993.41;1613120;89;21122;-75
2021/05/07 01:15:23;;;;;;;6.50;5.20;;;;;;;7.95;78.51;98987.92;1622508;88;21603;-75
2021/05/07 01:17:53;;;;;;;5.92;4.95;;;;;;;7.95;78.65;98981.84;1618223;86;21174;-75
2021/05/07 01:20:24;;;;;;;8.03;5.45;;;;;;;7.92;78.93;98980.78;1630735;87;21118;-74
2021/05/07 01:22:54;;;;;;;8.05;5.60;;;;;;;7.91;78.75;98969.93;1627665;88;21199;-74
2021/05/07 01:25:24;;;;;;;11.88;8.35;;;;;;;7.89;79.10;98968.73;1621261;87;21196;-74
2021/05/07 01:27:54;;;;;;;7.62;6.25;;;;;;;7.86;79.01;98967.67;1614083;88;21589;-74
2021/05/07 01:30:27;;;;;;;8.28;6.35;;;;;;;7.83;78.96;98967.95;1613173;89;21162;-74
2021/05/07 01:32:53;;;;;;;6.58;4.83;;;;;;;7.83;79.21;98966.64;1621906;88;21566;-74
2021/05/07 01:35:25;;;;;;;5.58;3.42;;;;;;;7.82;79.26;98956.24;1616616;87;21090;-74
2021/05/07 01:37:54;;;;;;;;;;;;;;;7.77;78.84;98957.95;1615483;88;21122;-74
2021/05/07 01:40:28;;;;;;;8.60;6.58;;;;;;;7.75;79.31;98953.29;1613073;88;20296;-74
2021/05/07 01:42:54;;;;;;;6.67;5.05;;;;;;;7.71;79.56;98940.90;1610067;88;21175;-74
2021/05/07 01:45:24;;;;;;;6.87;4.17;;;;;;;7.68;79.47;98941.15;1621685;88;21142;-74
2021/05/07 01:47:50;;;;;;;7.20;3.62;;;;;;;7.65;79.72;98933.52;1628655;88;21295;-74
2021/05/07 01:50:21;;;;;;;3.98;2.67;;;;;;;7.62;79.60;98933.77;1626391;88;21168;-74
2021/05/07 01:52:47;;;;;;;4.42;2.77;;;;;;;7.62;79.70;98935.57;1619360;88;21579;-74
2021/05/07 01:55:18;;;;;;;4.15;2.60;;;;;;;7.58;79.84;98925.81;1615730;88;21323;-75
2021/05/07 01:57:45;;;;;;;4.22;2.87;;;;;;;7.56;79.71;98929.51;1628295;87;21190;-75
2021/05/07 02:00:15;;;;;;;4.80;3.20;;;;;;;7.54;79.85;98928.34;1628656;88;21177;-74
2021/05/07 02:02:42;;;;;;;4.65;3.20;;;;;;;7.50;79.84;98925.13;1587755;90;21197;-74
2021/05/07 02:05:11;;;;;;;3.92;2.80;;;;;;;7.48;80.00;98928.35;1617045;88;21129;-74
2021/05/07 02:07:37;;;;;;;3.50;2.40;;;;;;;7.47;79.98;98924.55;1613351;88;21066;-74
2021/05/07 02:10:13;;;;;;;6.40;3.17;;;;;;;7.45;79.87;98927.28;1613029;88;21236;-75
2021/05/07 02:12:40;;;;;;;3.80;2.52;;;;;;;7.45;80.02;98918.10;1613183;88;21154;-75
2021/05/07 02:15:11;;;;;;;3.27;2.10;;;;;;;7.44;80.15;98922.18;1613152;89;21184;-75
2021/05/07 02:17:37;;;;;;;1.77;1.37;;;;;;;7.43;79.86;98925.25;1612440;89;21607;-75
2021/05/07 02:20:05;;;;;;;2.75;1.32;;;;;;;7.44;79.95;98915.14;1636211;87;21240;-75
2021/05/07 02:22:31;;;;;;;2.30;1.40;;;;;;;7.43;79.86;98912.62;1614013;87;21201;-75
2021/05/07 02:24:57;;;;;;;2.33;2.00;;;;;;;7.43;80.00;98912.13;1613309;88;21304;-75
2021/05/07 02:27:23;;;;;;;2.62;1.42;;;;;;;7.43;79.96;98910.00;1612760;89;21138;-75
2021/05/07 02:29:49;;;;;;;2.92;1.67;;;;;;;7.42;80.00;98909.16;1622794;88;21295;-75
2021/05/07 02:32:16;;;;;;;3.72;2.15;;;;;;;7.41;80.13;98918.01;1622364;87;21165;-75
2021/05/07 02:34:42;;;;;;;4.03;2.35;;;;;;;7.41;80.33;98904.06;1628730;87;21416;-75
2021/05/07 02:37:09;;;;;;;7.15;3.17;;;;;;;7.38;80.24;98907.76;1624606;87;21172;-75
2021/05/07 02:39:35;;;;;;;3.33;1.85;;;;;;;7.37;80.40;98917.05;1617215;88;21094;-75
2021/05/07 02:42:03;;;;;;;3.77;2.15;;;;;;;7.35;80.43;98909.31;1628229;87;21176;-75
2021/05/07 02:44:29;;;;;;;3.83;2.85;;;;;;;7.35;80.41;98914.56;1622140;87;21135;-75
2021/05/07 02:47:03;;;;;;;3.90;2.92;;;;;;;7.35;80.42;98905.87;1612982;88;21198;-75
2021/05/07 02:49:22;;;;;;;3.83;2.90;;;;;;;7.34;80.50;98908.98;1612014;89;21393;-74
2021/05/07 02:51:48;;;;;;;4.70;3.10;;;;;;;7.34;80.72;98911.60;1609424;89;21584;-74
2021/05/07 02:54:14;;;;;;;3.42;2.62;;;;;;;7.34;80.65;98910.74;1612476;89;21259;-74
2021/05/07 02:56:40;;;;;;;4.75;2.05;;;;;;;7.32;80.64;98906.95;1616980;88;21719;-74
2021/05/07 02:59:06;;;;;;;4.50;1.87;;;;;;;7.30;80.54;98903.60;1589652;89;21116;-74
2021/05/07 03:01:32;;;;;;;3.85;2.40;;;;;;;7.30;80.78;98898.35;1615110;88;21280;-74
2021/05/07 03:03:57;;;;;;;2.72;2.00;;;;;;;7.29;80.76;98907.19;1616004;88;21272;-74
2021/05/07 03:06:23;;;;;;;3.77;2.10;;;;;;;7.27;80.62;98902.53;1628697;87;21141;-74
2021/05/07 03:08:49;;;;;;;7.37;4.05;;;;;;;7.25;80.71;98900.53;1615592;87;21130;-74
2021/05/07 03:11:15;;;;;;;6.35;4.00;;;;;;;7.22;80.78;98900.78;1614213;88;21086;-74
2021/05/07 03:13:40;;;;;;;7.33;4.80;;;;;;;7.22;80.83;98903.41;1614186;88;21158;-74
2021/05/07 03:16:06;;;;;;;6.85;3.95;;;;;;;7.23;81.05;98901.13;1613807;88;21260;-74
2021/05/07 03:18:32;;;;;;;5.85;3.92;;;;;;;7.23;81.28;98903.27;1631418;87;21668;-74
2021/05/07 03:20:58;;;;;;;3.22;2.92;;;;;;;7.22;81.07;98902.92;1623286;87;21264;-74
2021/05/07 03:23:24;;;;;;;5.20;3.83;;;;;;;7.20;81.12;98899.58;1612935;89;21460;-74
2021/05/07 03:25:50;;;;;;;4.35;2.60;;;;;;;7.20;81.23;98910.55;1612698;89;21138;-74
2021/05/07 03:28:16;;;;;;;4.45;2.75;;;;;;;7.18;81.18;98912.01;1617165;88;21260;-74
2021/05/07 03:30:42;;;;;;;6.33;3.20;;;;;;;7.18;81.06;98916.42;1626340;88;21191;-74
2021/05/07 03:33:08;;;;;;;3.05;2.22;;;;;;;7.16;81.22;98917.84;1622999;87;21317;-74
2021/05/07 03:35:36;;;;;;;2.83;1.90;;;;;;;7.15;81.03;98923.23;1616822;88;21134;-74
2021/05/07 03:38:04;;;;;;;3.33;2.72;;;;;;;7.16;81.19;98917.02;1612784;89;21172;-74
2021/05/07 03:40:31;;;;;;;3.52;2.35;;;;;;;7.15;81.05;98919.30;1613126;89;21249;-74
2021/05/07 03:42:57;;;;;;;3.05;2.30;;;;;;;7.13;81.14;98916.78;1613189;88;21529;-74
2021/05/07 03:45:23;;;;;;;2.77;2.33;;;;;;;7.13;81.37;98915.47;1613815;88;21252;-74
2021/05/07 03:47:49;;;;;;;4.03;3.62;;;;;;;7.13;81.39;98918.58;1621696;88;21126;-74
2021/05/07 03:50:16;;;;;;;3.27;2.00;;;;;;;7.13;81.54;98925.13;1613038;88;21107;-74
2021/05/07 03:52:42;;;;;;;3.58;2.22;;;;;;;7.12;81.70;98919.54;1618260;88;21161;-74
2021/05/07 03:55:13;;;;;;;3.35;2.30;;;;;;;7.11;81.79;98921.34;1613050;89;21324;-74
2021/05/07 03:57:41;;;;;;;3.27;2.37;;;;;;;7.10;81.98;98922.27;1613010;89;21127;-74
2021/05/07 04:00:10;;;;;;;4.47;3.30;;;;;;;7.09;81.72;98923.23;1613408;88;21288;-74
2021/05/07 04:02:36;;;;;;;3.08;2.70;;;;;;;7.07;81.72;98925.14;1622161;88;21287;-74
2021/05/07 04:05:03;;;;;;;2.50;2.30;;;;;;;7.05;81.74;98929.69;1616400;88;21142;-74
2021/05/07 04:07:29;;;;;;;4.65;2.33;;;;;;;7.05;81.98;98933.14;1612798;89;21689;-74
2021/05/07 04:10:03;;;;;;;8.05;2.72;;;;;;;7.05;81.91;98941.02;1613103;89;21161;-74
2021/05/07 04:15:02;;;;;;;3.95;2.30;;;;;;;7.04;82.04;98937.19;1626829;87;21707;-74
2021/05/07 04:17:28;;;;;;;3.42;2.62;;;;;;;7.02;82.25;98936.01;1622805;88;21113;-74
2021/05/07 04:19:54;;;;;;;5.92;3.35;;;;;;;7.01;82.23;98942.70;1634515;87;21222;-74
2021/05/07 04:22:21;;;;;;;6.45;4.12;;;;;;;7.01;82.43;98935.66;1620776;87;21287;-74
2021/05/07 04:24:47;;;;;;;5.05;3.30;;;;;;;7.00;82.29;98943.16;1615267;87;21267;-74
2021/05/07 04:27:13;;;;;;;5.87;3.62;;;;;;;7.01;82.47;98941.39;1612809;89;21106;-74
2021/05/07 04:29:40;;;;;;;5.53;3.47;;;;;;;7.01;82.75;98951.40;1613140;89;21142;-74
2021/05/07 04:32:06;;;;;;;10.18;4.72;;;;;;;7.04;82.89;98946.36;1617038;88;21189;-74
2021/05/07 04:34:32;;;;;;;6.80;5.87;;;;;;;7.06;82.65;98952.33;1613460;88;21158;-74
2021/05/07 04:36:58;;;;;;;5.72;4.65;;;;;;;7.06;82.73;98956.27;1628482;87;21181;-74
2021/05/07 04:39:24;;;;;;;6.70;4.55;;;;;;;7.06;82.93;98949.71;1628985;88;21133;-74
2021/05/07 04:41:51;;;;;;;5.78;3.80;;;;;;;7.08;82.93;98955.67;1627491;87;21635;-74
2021/05/07 04:44:17;;;;;;;6.03;4.10;;;;;;;7.09;82.96;98952.58;1612944;89;21149;-74
2021/05/07 04:46:43;;;;;;;5.50;4.22;;;;;;;7.07;82.77;98961.03;1611782;89;21521;-74
2021/05/07 04:49:09;;;;;;;4.50;3.40;;;;;;;7.07;83.14;98964.97;1613478;88;21298;-74
2021/05/07 04:51:35;;;;;;;5.87;4.17;;;;;;;7.07;83.10;98963.17;1613041;89;21727;-74
2021/05/07 04:54:03;;;;;;;4.67;3.72;;;;;;;7.10;83.30;98962.92;1612989;89;21736;-74
2021/05/07 04:56:29;;;;;;;6.90;4.87;;;;;;;7.12;83.36;98968.90;1612901;89;21690;-74
2021/05/07 04:58:55;;;;;;;8.18;5.00;;;;;;;7.13;83.60;98971.87;1612918;89;21187;-74
2021/05/07 05:01:21;;;;;;;5.75;3.02;;;;;;;7.15;83.46;98978.32;1612771;89;21221;-74
2021/05/07 05:03:46;;;;;;;9.63;5.35;;;;;;;7.14;83.42;98977.94;1612943;89;21166;-74
2021/05/07 05:06:12;;;;;;;6.80;5.03;;;;;;;7.16;83.55;98979.98;1612747;89;21339;-74
2021/05/07 05:08:38;;;;;;;4.65;3.05;;;;;;;7.17;83.60;98988.19;1612871;89;21153;-74
2021/05/07 05:11:04;;;;;;;7.22;4.03;;;;;;;7.15;83.74;98992.75;1612892;89;21103;-74
2021/05/07 05:13:30;;;;;;;6.80;3.92;;;;;;;7.15;83.73;98995.37;1612843;89;21320;-74
2021/05/07 05:15:57;;;;;;;5.05;3.27;;;;;;;7.15;84.02;99000.62;1613150;89;21653;-74
2021/05/07 05:18:31;;;;;;;6.17;3.65;;;;;;;7.18;83.91;98992.02;1617595;87;21540;-74
2021/05/07 05:21:00;;;;;;;5.37;3.65;;;;;;;7.17;83.88;98990.81;1624856;87;21283;-74
2021/05/07 05:23:27;;;;;;;4.95;3.85;;;;;;;7.21;84.32;98997.52;1612868;89;21162;-75
2021/05/07 05:25:54;;;;;;;4.90;2.80;;;;;;;7.22;84.35;99001.31;1612786;88;21164;-75
2021/05/07 05:28:20;;;;;;;6.30;3.50;;;;;;;7.25;84.37;98998.92;1613006;89;21288;-75
2021/05/07 05:30:47;;;;;;;4.25;2.55;;;;;;;7.25;84.32;98997.13;1612827;89;21118;-75
2021/05/07 05:33:13;;;;;;;5.15;3.27;;;;;;;7.27;84.44;98998.31;1612908;89;21118;-75
2021/05/07 05:35:39;;;;;;;3.95;2.55;;;;;;;7.29;84.53;98989.84;1613886;88;21142;-75
2021/05/07 05:38:07;;;;;;;6.85;3.27;;;;;;;7.32;84.69;99000.09;1612936;89;21643;-75
2021/05/07 05:40:33;;;;;;;4.65;3.10;;;;;;;7.33;84.82;99002.23;1612994;89;21254;-75
2021/05/07 05:43:01;;;;;;;6.25;3.85;;;;;;;7.32;84.72;99000.58;1612850;89;21294;-75
2021/05/07 05:45:27;;;;;;;4.90;3.40;;;;;;;7.33;84.98;99005.69;1613198;89;21244;-75
2021/05/07 05:48:04;;;;;;;4.33;3.30;;;;;;;7.34;84.60;99013.94;1612830;89;21299;-75
2021/05/07 05:50:31;;;;;;;5.50;3.45;;;;;;;7.31;84.67;99011.56;1615586;88;21162;-75
2021/05/07 05:52:58;;;;;;;6.08;4.85;;;;;;;7.31;84.93;99018.60;1612849;89;21746;-75
2021/05/07 05:55:24;;;;;;;6.05;4.22;;;;;;;7.32;84.89;99026.83;1613102;89;21153;-75
2021/05/07 05:57:52;;;;;;;6.08;3.87;;;;;;;7.28;84.78;99024.92;1613042;89;21134;-75
2021/05/07 06:00:20;;;;;;;5.67;4.67;;;;;;;7.30;85.12;99033.48;1612833;89;21278;-75
2021/05/07 06:02:46;;;;;;;7.62;4.22;;;;;;;7.32;85.11;99036.01;1612830;89;21155;-75
2021/05/07 06:05:13;;;;;;;7.42;3.27;;;;;;;7.33;85.17;99037.66;1612744;89;21397;-75
2021/05/07 06:07:40;;;;;;;4.60;3.52;;;;;;;7.34;84.91;99038.02;1612816;89;21114;-75
2021/05/07 06:10:10;;;;;;;4.70;3.27;;;;;;;7.32;84.80;99035.52;1613112;89;21094;-75
2021/05/07 06:12:38;;;;;;;5.10;3.35;;;;;;;7.32;85.04;99040.77;1611478;89;21106;-75
2021/05/07 06:15:06;;;;;;;5.17;3.77;;;;;;;7.29;84.79;99041.84;1613061;89;21162;-75
2021/05/07 06:17:33;;;;;;;5.25;3.05;;;;;;;7.30;85.12;99046.61;1628879;87;21139;-75
2021/05/07 06:20:03;;;;;;;5.85;4.22;;;;;;;7.31;85.14;99047.47;1630788;87;21159;-75
2021/05/07 06:22:30;;;;;;;5.42;3.92;;;;;;;7.29;84.80;99051.51;1628827;87;21157;-75
2021/05/07 06:24:57;;;;;;;5.37;3.12;;;;;;;7.25;84.86;99048.78;1621383;87;21102;-75
2021/05/07 06:27:23;;;;;;;6.00;2.90;;;;;;;7.23;84.71;99050.67;1612133;89;21690;-75
2021/05/07 06:29:49;;;;;;;7.05;5.50;;;;;;;7.18;84.66;99048.91;1620777;88;21153;-75
2021/05/07 06:32:15;;;;;;;6.85;4.08;;;;;;;7.18;84.89;99052.84;1628821;88;21307;-75
2021/05/07 06:34:41;;;;;;;6.03;3.95;;;;;;;7.18;84.93;99057.61;1626507;87;21114;-75
2021/05/07 06:37:07;;;;;;;5.37;3.40;;;;;;;7.22;85.26;99056.89;1624031;87;21608;-75
2021/05/07 06:39:33;;;;;;;6.85;3.90;;;;;;;7.24;85.05;99059.76;1613120;89;21186;-75
2021/05/07 06:42:01;;;;;;;12.55;8.83;;;;;;;7.22;84.73;99058.20;1612850;89;21644;-75
2021/05/07 06:44:28;;;;;;;9.43;6.20;;;;;;;7.21;84.92;99063.94;1613234;89;21162;-75
2021/05/07 06:46:54;;;;;;;8.23;4.42;;;;;;;7.26;85.54;99068.80;1612661;89;21200;-75
2021/05/07 06:49:22;;;;;;;3.70;2.12;;;;;;;7.32;85.85;99070.95;1613113;89;21742;-75
2021/05/07 06:51:48;;;;;;;4.05;2.25;;;;;;;7.36;85.13;99080.24;1612857;89;21166;-75
2021/05/07 06:54:14;;;;;;;3.55;2.87;;;;;;;7.37;84.96;99079.76;1636773;87;21261;-75
2021/05/07 06:56:40;;;;;;;3.85;2.90;;;;;;;7.39;84.72;99080.00;1624283;87;21552;-75
2021/05/07 06:59:07;;;;;;;4.17;2.85;;;;;;;7.39;85.19;99080.48;1612959;89;21249;-75
2021/05/07 07:01:34;;;;;;;4.65;2.50;;;;;;;7.42;85.56;99081.55;1618572;88;21184;-75
2021/05/07 07:04:01;;;;;;;2.65;2.05;;;;;;;7.46;85.27;99079.03;1628559;88;22314;-75
2021/05/07 07:06:28;;;;;;;5.45;2.45;;;;;;;7.45;84.90;99082.62;1624709;87;21138;-75
2021/05/07 07:08:54;;;;;;;3.12;2.27;;;;;;;7.45;84.67;99080.83;1613011;89;21316;-75
2021/05/07 07:11:20;;;;;;;3.67;2.05;;;;;;;7.45;84.52;99082.62;1618150;88;21151;-75
2021/05/07 07:13:47;;;;;;;3.00;1.60;;;;;;;7.47;85.07;99087.29;1614942;87;21154;-75
2021/05/07 07:16:14;;;;;;;1.95;1.62;;;;;;;7.48;84.17;99087.16;1612824;89;21154;-75
2021/05/07 07:18:41;;;;;;;4.78;1.80;;;;;;;7.50;84.79;99087.88;1603674;87;21181;-75
2021/05/07 07:21:08;;;;;;;2.98;2.05;;;;;;;7.50;84.81;99083.94;1621540;87;21311;-75
2021/05/07 07:23:38;;;;;;;4.33;3.12;;;;;;;7.56;85.55;99078.66;1613205;88;21161;-75
2021/05/07 07:26:07;;;;;;;4.22;3.27;;;;;;;7.59;84.45;99085.45;1611894;89;21263;-76
2021/05/07 07:28:37;;;;;;;3.12;2.45;;;;;;;7.58;84.91;99079.37;1612510;89;21530;-76
2021/05/07 07:31:05;;;;;;;3.15;2.33;;;;;;;7.60;84.81;99084.49;1613190;89;21583;-76
2021/05/07 07:33:32;;;;;;;2.87;2.40;;;;;;;7.58;84.56;99083.31;1612796;89;21662;-76
2021/05/07 07:35:58;;;;;;;3.17;2.35;;;;;;;7.60;84.50;99086.67;1613010;89;21265;-76
2021/05/07 07:38:25;;;;;;;4.30;3.10;;;;;;;7.58;84.44;99087.73;1612930;89;21167;-76
2021/05/07 07:40:52;;;;;;;3.12;2.35;;;;;;;7.61;84.80;99084.88;1612957;89;21542;-76
2021/05/07 07:43:21;;;;;;;3.92;2.17;;;;;;;7.62;84.08;99087.36;1612974;89;21146;-76
2021/05/07 07:45:50;;;;;;;5.83;3.92;;;;;;;7.62;84.40;99099.66;1612786;89;21197;-76
2021/05/07 07:48:17;;;;;;;4.70;2.42;;;;;;;7.63;84.95;99113.95;1612906;89;21118;-76
2021/05/07 07:50:44;;;;;;;4.58;2.67;;;;;;;7.64;84.36;99114.34;1627696;88;21140;-76
2021/05/07 07:53:11;;;;;;;7.00;4.08;;;;;;;7.61;84.30;99123.77;1634427;87;21096;-76
2021/05/07 07:55:37;;;;;;;4.80;3.60;;;;;;;7.61;84.10;99120.31;1628284;87;21176;-76
2021/05/07 07:58:03;;;;;;;4.80;3.42;;;;;;;7.62;84.94;99116.23;1612689;89;21173;-76
2021/05/07 08:00:30;;;;;;;5.00;3.37;;;;;;;7.67;85.11;99109.33;1613156;89;21133;-76
2021/05/07 08:02:56;;;;;;;4.22;3.10;;;;;;;7.71;85.02;99105.01;1612779;89;21270;-76
2021/05/07 08:05:22;;;;;;;4.75;3.47;;;;;;;7.74;84.50;99098.20;1612927;89;21187;-76
2021/05/07 08:07:48;;;;;;;5.95;3.30;;;;;;;7.73;84.48;99099.16;1614721;88;21735;-76
2021/05/07 08:10:16;;;;;;;5.22;2.90;;;;;;;7.74;84.78;99103.45;1617045;87;21138;-76
2021/05/07 08:12:43;;;;;;;6.92;3.72;;;;;;;7.78;84.73;99109.29;1615040;88;21727;-76
2021/05/07 08:15:10;;;;;;;5.92;3.80;;;;;;;7.82;85.02;99114.64;1623125;87;21160;-75
2021/05/07 08:17:36;;;;;;;7.72;5.00;;;;;;;7.87;85.36;99119.55;1618656;88;21148;-76
2021/05/07 08:20:05;;;;;;;4.60;3.33;;;;;;;7.93;85.14;99125.59;1637832;87;21091;-76
2021/05/07 08:22:32;;;;;;;4.28;3.17;;;;;;;7.91;84.87;99132.30;1629584;87;21126;-76
2021/05/07 08:24:59;;;;;;;4.10;3.55;;;;;;;7.93;84.97;99136.95;1612575;89;21134;-76
2021/05/07 08:27:26;;;;;;;7.35;3.87;;;;;;;7.90;84.54;99148.20;1611678;89;21279;-76
2021/05/07 08:29:54;;;;;;;14.95;8.60;;;;;;;7.87;84.29;99144.02;1613038;89;21623;-76
2021/05/07 08:32:20;;;;;;;6.95;4.40;;;;;;;7.84;84.40;99139.00;1612753;89;21181;-76
2021/05/07 08:34:46;;;;;;;4.70;3.05;;;;;;;7.83;84.40;99146.53;1613112;89;21294;-76
2021/05/07 08:37:12;;;;;;;4.37;3.10;;;;;;;7.83;84.40;99146.53;1612777;89;21352;-76
2021/05/07 08:39:38;;;;;;;5.95;4.40;;;;;;;7.80;84.51;99153.34;1621025;88;21187;-76
2021/05/07 08:42:08;;;;;;;7.45;5.53;;;;;;;7.82;84.93;99167.17;1625929;87;21176;-76
2021/05/07 08:44:34;;;;;;;6.35;4.80;;;;;;;7.82;84.48;99175.05;1612622;89;21280;-76
2021/05/07 08:47:01;;;;;;;7.75;4.00;;;;;;;7.78;84.22;99180.19;1613174;88;21103;-76
2021/05/07 08:49:28;;;;;;;5.87;4.15;;;;;;;7.75;84.17;99185.69;1612889;89;21150;-76
2021/05/07 08:51:56;;;;;;;10.40;4.85;;;;;;;7.74;84.45;99184.03;1612795;89;21288;-76
2021/05/07 08:54:22;;;;;;;5.90;4.50;;;;;;;7.74;84.51;99189.28;1613058;89;21170;-76
2021/05/07 08:56:50;;;;;;;7.05;4.85;;;;;;;7.74;84.59;99189.28;1612512;89;21212;-76
2021/05/07 08:59:16;;;;;;;7.17;5.28;;;;;;;7.74;84.60;99190.59;1613035;89;21157;-76
2021/05/07 09:01:48;;;;;;;7.17;5.50;;;;;;;7.76;84.58;99184.72;1612639;89;21166;-75
2021/05/07 09:04:19;;;;;;;9.45;5.40;;;;;;;7.80;84.50;99187.48;1613202;89;21178;-75
2021/05/07 09:09:27;;;;;;;21.62;12.15;;;;;;;7.83;83.77;99191.19;1615141;88;21137;-76
2021/05/07 09:11:55;;;;;;;29.27;22.98;;;;;;;7.82;84.37;99195.23;1613042;89;21211;-76
2021/05/07 09:14:23;;;;;;;32.65;21.33;;;;;;;7.84;84.65;99207.77;1613186;88;21303;-76
2021/05/07 09:17:01;;;;;;;57.05;42.10;;;;;;;7.83;83.98;99204.31;1609091;89;21185;-76
2021/05/07 09:19:29;;;;;;;46.13;30.88;;;;;;;7.79;84.29;99207.28;1629382;87;21123;-76
2021/05/07 09:21:57;;;;;;;147.43;81.22;;;;;;;7.82;84.81;99209.19;1621146;87;21723;-76
2021/05/07 09:24:38;;;;;;;89.32;49.27;;;;;;;7.85;84.47;99215.52;1612764;89;21510;-76
2021/05/07 09:27:08;;;;;;;102.78;61.42;;;;;;;7.84;83.54;99215.17;1611850;89;21166;-76
2021/05/07 09:29:37;;;;;;;150.12;112.35;;;;;;;7.85;84.43;99227.33;1608985;89;21160;-76
2021/05/07 09:32:04;;;;;;;37.38;21.25;;;;;;;7.85;84.16;99232.59;1612894;88;21359;-74
2021/05/07 09:34:38;;;;;;;149.30;70.95;;;;;;;7.86;83.73;99229.48;1603208;89;21572;-74
2021/05/07 09:37:18;;;;;;;332.98;161.70;;;;;;;7.87;84.16;99227.23;1613812;88;21168;-75
2021/05/07 09:39:44;;;;;;;90.67;41.13;;;;;;;7.90;84.64;99237.02;1613106;89;21194;-75
2021/05/07 09:42:24;;;;;;;109.95;48.68;;;;;;;7.93;84.03;99240.72;1612356;88;21243;-75
2021/05/07 09:44:50;;;;;;;80.25;34.45;;;;;;;7.94;84.27;99247.63;1612972;89;21141;-75
2021/05/07 09:47:17;;;;;;;15.65;8.28;;;;;;;7.94;83.36;99250.74;1611653;87;21288;-75
2021/05/07 09:49:43;;;;;;;21.42;11.50;;;;;;;7.94;84.00;99252.89;1632316;87;21215;-74
2021/05/07 09:52:09;;;;;;;28.98;13.10;;;;;;;7.94;83.57;99254.68;1616537;87;21279;-74
2021/05/07 09:54:38;;;;;;;28.10;14.73;;;;;;;7.91;83.17;99254.92;1611559;87;21187;-75
2021/05/07 09:57:05;;;;;;;27.60;12.73;;;;;;;7.89;83.30;99258.12;1622502;86;21178;-75
2021/05/07 09:59:32;;;;;;;6.67;4.42;;;;;;;7.86;83.38;99256.58;1612965;87;21181;-74
2021/05/07 10:02:02;;;;;;;23.60;13.03;;;;;;;7.86;83.28;99256.58;1607904;88;21123;-74
2021/05/07 10:04:29;;;;;;;9.88;5.78;;;;;;;7.84;83.18;99263.76;1589313;88;21130;-74
2021/05/07 10:06:55;;;;;;;49.90;27.87;;;;;;;7.82;83.25;99274.84;1611395;87;21134;-74
2021/05/07 10:09:24;;;;;;;10.53;7.20;;;;;;;7.80;83.70;99271.98;1621510;87;21638;-74
2021/05/07 10:11:53;;;;;;;6.28;5.22;;;;;;;7.79;83.41;99271.14;1634202;87;21194;-74
2021/05/07 10:14:20;;;;;;;5.92;4.65;;;;;;;7.79;83.57;99271.14;1632148;87;21568;-73
2021/05/07 10:16:47;;;;;;;10.88;5.33;;;;;;;7.84;83.73;99283.45;1607186;88;21176;-74
2021/05/07 10:19:14;;;;;;;9.80;5.08;;;;;;;7.83;83.62;99283.11;1617580;87;21198;-74
2021/05/07 10:21:49;;;;;;;13.22;8.00;;;;;;;7.87;83.85;99279.28;1611506;87;21266;-74
2021/05/07 10:24:17;;;;;;;5.85;4.50;;;;;;;7.93;83.21;99278.80;1615486;87;21181;-74
2021/05/07 10:26:53;;;;;;;11.93;8.33;;;;;;;8.00;83.64;99279.16;1624405;87;21257;-73
2021/05/07 10:29:28;;;;;;;8.68;6.08;;;;;;;8.07;83.94;99276.41;1623255;87;21179;-73
2021/05/07 10:31:58;;;;;;;25.55;15.15;;;;;;;8.17;84.04;99278.66;1613033;87;21168;-73
2021/05/07 10:34:27;;;;;;;20.43;13.15;;;;;;;8.14;83.47;99257.05;1631118;87;21614;-74
2021/05/07 10:36:57;;;;;;;9.10;4.42;;;;;;;8.36;83.88;99275.89;1612472;87;21339;-74
2021/05/07 10:39:31;;;;;;;5.92;4.80;;;;;;;8.44;83.31;99273.50;1627751;87;21294;-75
2021/05/07 10:41:59;;;;;;;8.00;5.05;;;;;;;8.55;83.47;99275.25;1616521;87;21635;-73
2021/05/07 10:44:28;;;;;;;5.55;3.72;;;;;;;8.71;83.73;99273.05;1629960;87;21136;-73
2021/05/07 10:47:06;;;;;;;6.00;3.83;;;;;;;8.91;83.59;99274.88;1617338;87;21714;-73
2021/05/07 10:49:36;;;;;;;8.10;4.20;;;;;;;9.15;82.58;99276.47;1632353;86;21159;-74
2021/05/07 10:52:06;;;;;;;5.97;4.33;;;;;;;9.28;82.71;99267.90;1611474;88;21150;-73
2021/05/07 10:54:46;;;;;;;5.35;3.55;;;;;;;9.44;82.45;99270.53;1611784;87;21466;-73
2021/05/07 10:57:27;;;;;;;5.65;3.80;;;;;;;9.58;80.03;99267.09;1611612;87;21193;-74
2021/05/07 10:59:58;;;;;;;7.47;4.25;;;;;;;9.60;80.33;99260.37;1614599;87;21193;-73
2021/05/07 11:02:25;;;;;;;5.55;4.20;;;;;;;9.58;80.24;99269.73;1610750;87;21175;-73
2021/05/07 11:04:51;;;;;;;4.45;3.58;;;;;;;9.70;80.69;99266.52;1614890;87;21157;-73
2021/05/07 11:07:32;;;;;;;6.40;4.22;;;;;;;9.92;80.75;99272.58;1615901;87;21603;-73
2021/05/07 11:10:03;;;;;;;7.45;4.00;;;;;;;10.14;80.92;99271.07;1613936;87;21642;-72
2021/05/07 11:12:29;;;;;;;4.85;4.25;;;;;;;10.36;79.65;99278.43;1594362;87;21299;-73
2021/05/07 11:14:56;;;;;;;4.33;3.67;;;;;;;10.44;79.76;99272.02;1612329;87;21169;-73
2021/05/07 11:17:22;;;;;;;5.92;4.25;;;;;;;10.53;78.56;99280.43;1623017;87;21518;-73
2021/05/07 11:19:49;;;;;;;6.35;5.10;;;;;;;10.63;79.63;99287.01;1611764;87;21192;-73
2021/05/07 11:22:15;;;;;;;7.25;4.90;;;;;;;10.76;78.56;99289.76;1608814;87;21150;-73
2021/05/07 11:24:43;;;;;;;7.05;4.80;;;;;;;10.85;77.81;99280.66;1615786;87;21168;-73
2021/05/07 11:27:25;;;;;;;6.75;5.58;;;;;;;11.03;78.20;99282.95;1613230;87;21191;-73
2021/05/07 11:29:53;;;;;;;7.78;5.45;;;;;;;11.11;77.33;99283.56;1612515;88;21745;-73
2021/05/07 11:32:24;;;;;;;4.37;3.95;;;;;;;11.03;77.69;99277.67;1614536;87;21161;-73
2021/05/07 11:34:55;;;;;;;5.47;4.78;;;;;;;11.04;75.53;99260.36;1610740;87;21205;-73
2021/05/07 11:37:23;;;;;;;4.92;3.83;;;;;;;11.03;76.36;99254.75;1623648;87;21708;-73
2021/05/07 11:40:17;;;;;;;4.28;3.22;;;;;;;11.17;75.25;99264.03;1617229;87;21170;-73
2021/05/07 11:42:46;;;;;;;6.03;3.70;;;;;;;11.23;74.74;99268.76;1613140;87;21204;-73
2021/05/07 11:45:22;;;;;;;3.85;3.20;;;;;;;11.32;76.20;99262.27;1622186;87;21342;-73
2021/05/07 11:47:50;;;;;;;6.95;4.72;;;;;;;11.52;75.84;99252.02;1614100;87;21208;-73